LFHP/LPY METAR and TAF weather

Enter ICAO airport designator
Station Type Date Time Source
LFHP METAR 2021/05/11 19:00 UTC NOAA

LFHP 111900Z AUTO 30007KT 9999 BKN040 08/03 Q1016


Station Type Date Time Source
LFHP Decoded METAR 2021/05/11 19:00 UTC NOAA

Le Puy, France (LFHP) 45-05N 003-46E 833M
May 11, 2021 - 03:00 PM EDT / 2021.05.11 1900 UTC
Wind: from the WNW (300 degrees) at 8 MPH (7 KT):0
Visibility: greater than 7 mile(s):0
Sky conditions: mostly cloudy
Temperature: 46 F (8 C)
Dew Point: 37 F (3 C)
Relative Humidity: 70%
Pressure (altimeter): 30.00 in. Hg (1016 hPa)
ob: LFHP 111900Z AUTO 30007KT 9999 BKN040 08/03 Q1016
cycle: 19

Station Type Date Time Source
LFHP TAF UTC NOAA

Error!

Example: see airport list